createdAt,value
2023-05-06T00:00:42.923Z,12.44
2023-05-06T00:03:45.849Z,12.38
2023-05-06T00:06:48.961Z,12.46
2023-05-06T00:09:51.739Z,12.42
2023-05-06T00:12:53.590Z,12.54
2023-05-06T00:15:56.787Z,12.66
2023-05-06T00:18:58.918Z,12.55
2023-05-06T00:22:00.807Z,12.56
2023-05-06T00:25:03.973Z,12.45
2023-05-06T00:28:05.697Z,12.33
2023-05-06T00:31:09.764Z,12.34
2023-05-06T00:34:11.553Z,12.29
2023-05-06T00:37:13.368Z,12.29
2023-05-06T00:40:15.710Z,12.19
2023-05-06T00:43:17.626Z,12.31
2023-05-06T00:46:20.953Z,12.18
2023-05-06T00:49:23.927Z,12.11
2023-05-06T00:52:26.237Z,11.99
2023-05-06T00:55:28.120Z,11.88
2023-05-06T00:58:31.232Z,11.78
2023-05-06T01:01:34.509Z,11.85
2023-05-06T01:04:36.569Z,11.84
2023-05-06T01:07:46.464Z,11.80
2023-05-06T01:10:53.735Z,11.77
2023-05-06T01:14:01.493Z,11.78
2023-05-06T01:17:08.041Z,11.76
2023-05-06T01:20:15.369Z,11.71
2023-05-06T01:23:19.032Z,11.67
2023-05-06T01:26:22.357Z,11.65
2023-05-06T01:29:24.314Z,11.74
2023-05-06T01:32:40.489Z,11.54
2023-05-06T01:35:55.007Z,11.74
2023-05-06T01:39:07.760Z,11.76
2023-05-06T01:42:13.855Z,11.72
2023-05-06T01:45:17.172Z,11.71
2023-05-06T01:48:20.293Z,11.73
2023-05-06T01:51:23.045Z,11.82
2023-05-06T01:54:26.203Z,11.92
2023-05-06T01:57:28.690Z,11.98
2023-05-06T02:00:30.797Z,11.94
2023-05-06T02:03:32.675Z,11.95
2023-05-06T02:06:35.449Z,12.01
2023-05-06T02:09:38.723Z,12.09
2023-05-06T02:12:41.417Z,12.02
2023-05-06T02:15:43.373Z,11.98
2023-05-06T02:18:45.884Z,11.87
2023-05-06T02:21:47.720Z,11.84
2023-05-06T02:24:51.669Z,11.76
2023-05-06T02:27:53.519Z,11.77
2023-05-06T02:30:56.646Z,11.75
2023-05-06T02:33:58.437Z,11.68
2023-05-06T02:37:00.278Z,11.63
2023-05-06T02:40:04.810Z,11.58
2023-05-06T02:43:07.270Z,11.55
2023-05-06T02:46:09.145Z,11.37
2023-05-06T02:49:11.256Z,11.25
2023-05-06T02:52:13.126Z,11.25
2023-05-06T02:55:16.682Z,11.32
2023-05-06T02:58:18.519Z,11.26
2023-05-06T03:01:21.386Z,11.29
2023-05-06T03:04:23.263Z,11.32
2023-05-06T03:07:25.354Z,11.20
2023-05-06T03:10:28.575Z,11.27
2023-05-06T03:13:30.393Z,11.11
2023-05-06T03:16:33.358Z,11.16
2023-05-06T03:19:35.135Z,11.22
2023-05-06T03:22:37.005Z,11.12
2023-05-06T03:25:41.064Z,11.32
2023-05-06T03:28:44.703Z,11.46
2023-05-06T03:31:49.504Z,11.44
2023-05-06T03:34:51.345Z,11.56
2023-05-06T03:37:54.052Z,11.60
2023-05-06T03:40:57.270Z,11.67
2023-05-06T03:43:59.050Z,11.74
2023-05-06T03:47:01.070Z,11.64
2023-05-06T03:50:03.001Z,11.79
2023-05-06T03:53:05.580Z,11.72
2023-05-06T03:56:08.976Z,11.73
2023-05-06T03:59:11.268Z,11.76
2023-05-06T04:02:14.262Z,11.80
2023-05-06T04:05:17.317Z,11.96
2023-05-06T04:08:19.138Z,12.07
2023-05-06T04:11:22.360Z,11.99
2023-05-06T04:14:24.213Z,11.90
2023-05-06T04:17:26.120Z,11.80
2023-05-06T04:20:28.160Z,11.81
2023-05-06T04:23:29.937Z,11.92
2023-05-06T04:26:33.639Z,12.12
2023-05-06T04:29:36.018Z,12.37
2023-05-06T04:32:38.741Z,12.33
2023-05-06T04:35:41.228Z,12.17
2023-05-06T04:38:42.998Z,12.01
2023-05-06T04:41:46.420Z,12.12
2023-05-06T04:44:48.920Z,12.20
2023-05-06T04:47:52.432Z,12.12
2023-05-06T04:50:54.251Z,12.15
2023-05-06T04:53:57.408Z,12.32
2023-05-06T04:57:01.034Z,12.38
2023-05-06T05:00:03.612Z,12.32
2023-05-06T05:03:05.561Z,12.14
2023-05-06T05:06:07.787Z,12.15
2023-05-06T05:09:10.725Z,12.10
2023-05-06T05:12:13.945Z,12.11
2023-05-06T05:15:15.804Z,12.03
2023-05-06T05:18:18.794Z,12.15
2023-05-06T05:21:21.123Z,12.50
2023-05-06T05:24:23.896Z,12.66
2023-05-06T05:27:27.483Z,12.94
2023-05-06T05:30:29.928Z,13.15
2023-05-06T05:33:31.901Z,13.04
2023-05-06T05:36:33.750Z,13.48
2023-05-06T05:39:35.915Z,13.59
2023-05-06T05:42:39.467Z,13.93
2023-05-06T05:45:41.395Z,14.09
2023-05-06T05:48:43.837Z,14.28
2023-05-06T05:51:45.735Z,14.50
2023-05-06T05:54:47.732Z,14.80
2023-05-06T05:57:51.211Z,15.02
2023-05-06T06:00:53.017Z,15.27
2023-05-06T06:03:56.603Z,15.37
2023-05-06T06:06:58.794Z,15.63
2023-05-06T06:10:00.858Z,15.89
2023-05-06T06:13:03.997Z,16.13
2023-05-06T06:16:06.477Z,16.41
2023-05-06T06:19:09.128Z,16.51
2023-05-06T06:22:11.040Z,16.56
2023-05-06T06:25:13.835Z,16.51
2023-05-06T06:28:17.005Z,16.61
2023-05-06T06:31:18.857Z,16.77
2023-05-06T06:34:21.789Z,16.93
2023-05-06T06:37:23.588Z,16.98
2023-05-06T06:40:25.422Z,17.08
2023-05-06T06:43:28.639Z,17.30
2023-05-06T06:46:30.438Z,17.30
2023-05-06T06:49:32.628Z,17.28
2023-05-06T06:52:34.699Z,17.49
2023-05-06T06:55:36.779Z,17.34
2023-05-06T06:58:40.186Z,17.57
2023-05-06T07:01:42.462Z,17.66
2023-05-06T07:04:44.687Z,17.76
2023-05-06T07:07:46.621Z,17.83
2023-05-06T07:10:48.503Z,17.78
2023-05-06T07:13:51.692Z,17.99
2023-05-06T07:16:53.525Z,18.10
2023-05-06T07:19:55.528Z,18.19
2023-05-06T07:22:57.335Z,18.17
2023-05-06T07:25:59.639Z,18.43
2023-05-06T07:29:04.351Z,18.53
2023-05-06T07:32:06.440Z,18.58
2023-05-06T07:35:09.548Z,18.77
2023-05-06T07:38:11.459Z,18.68
2023-05-06T07:41:13.280Z,18.60
2023-05-06T07:44:16.871Z,18.52
2023-05-06T07:47:27.229Z,18.58
2023-05-06T07:50:29.848Z,18.78
2023-05-06T07:53:31.734Z,18.80
2023-05-06T07:56:34.463Z,19.32
2023-05-06T07:59:37.731Z,19.33
2023-05-06T08:02:44.637Z,18.65
2023-05-06T08:05:46.800Z,18.70
2023-05-06T08:08:49.517Z,19.25
2023-05-06T08:11:51.486Z,19.05
2023-05-06T08:14:55.280Z,19.54
2023-05-06T08:18:02.170Z,19.84
2023-05-06T08:21:09.119Z,19.61
2023-05-06T08:24:11.211Z,19.85
2023-05-06T08:27:13.565Z,19.87
2023-05-06T08:30:17.038Z,20.10
2023-05-06T08:33:19.364Z,20.48
2023-05-06T08:36:22.585Z,20.95
2023-05-06T08:39:24.463Z,21.03
2023-05-06T08:42:26.910Z,21.29
2023-05-06T08:45:30.345Z,21.55
2023-05-06T08:48:32.374Z,21.60
2023-05-06T08:51:35.388Z,21.63
2023-05-06T08:54:38.302Z,21.61
2023-05-06T08:57:42.557Z,21.63
2023-05-06T09:00:46.637Z,21.52
2023-05-06T09:03:49.999Z,21.48
2023-05-06T09:06:52.454Z,21.83
2023-05-06T09:09:54.317Z,21.72
2023-05-06T09:12:57.075Z,22.09
2023-05-06T09:16:00.766Z,22.05
2023-05-06T09:19:02.894Z,22.12
2023-05-06T09:22:05.671Z,22.46
2023-05-06T09:25:08.270Z,22.38
2023-05-06T09:28:12.007Z,22.47
2023-05-06T09:31:16.180Z,22.74
2023-05-06T09:34:18.329Z,23.03
2023-05-06T09:37:21.136Z,22.93
2023-05-06T09:40:26.080Z,22.56
2023-05-06T09:43:28.589Z,22.71
2023-05-06T09:46:33.078Z,22.77
2023-05-06T09:49:35.046Z,22.44
2023-05-06T09:52:37.653Z,22.95
2023-05-06T09:55:40.828Z,23.20
2023-05-06T09:58:43.311Z,22.48
2023-05-06T10:01:47.344Z,22.35
2023-05-06T10:04:49.775Z,22.03
2023-05-06T10:07:54.708Z,21.91
2023-05-06T10:10:57.299Z,21.46
2023-05-06T10:14:00.298Z,21.68
2023-05-06T10:17:06.853Z,21.65
2023-05-06T10:20:13.340Z,21.73
2023-05-06T10:23:23.774Z,21.44
2023-05-06T10:26:29.829Z,21.64
2023-05-06T10:29:35.985Z,21.65
2023-05-06T10:32:43.235Z,21.62
2023-05-06T10:35:53.112Z,21.81
2023-05-06T10:38:57.268Z,22.00
2023-05-06T10:41:59.236Z,22.14
2023-05-06T10:45:06.441Z,22.19
2023-05-06T10:48:09.783Z,22.46
2023-05-06T10:51:25.894Z,22.15
2023-05-06T10:54:27.655Z,21.83
2023-05-06T10:57:40.911Z,22.01
2023-05-06T11:00:53.014Z,22.80
2023-05-06T11:03:56.904Z,23.05
2023-05-06T11:07:08.016Z,23.06
2023-05-06T11:10:12.160Z,23.25
2023-05-06T11:13:22.369Z,23.38
2023-05-06T11:16:49.693Z,23.01
2023-05-06T11:20:19.141Z,22.88
2023-05-06T11:23:21.024Z,22.76
2023-05-06T11:26:24.593Z,23.34
2023-05-06T11:29:26.986Z,23.03
2023-05-06T11:32:29.928Z,22.84
2023-05-06T11:35:36.713Z,22.56
2023-05-06T11:38:42.673Z,22.67
2023-05-06T11:41:45.061Z,22.75
2023-05-06T11:44:46.880Z,22.24
2023-05-06T11:47:49.004Z,22.46
2023-05-06T11:50:52.385Z,22.34
2023-05-06T11:54:05.148Z,22.16
2023-05-06T11:57:08.204Z,22.08
2023-05-06T12:00:12.084Z,22.05
2023-05-06T12:03:14.731Z,21.81
2023-05-06T12:06:19.246Z,22.09
2023-05-06T12:09:24.626Z,21.69
2023-05-06T12:12:28.177Z,22.20
2023-05-06T12:15:30.292Z,22.06
2023-05-06T12:18:33.492Z,21.73
2023-05-06T12:21:39.495Z,21.85
2023-05-06T12:24:41.537Z,21.99
2023-05-06T12:27:43.763Z,21.88
2023-05-06T12:30:46.531Z,21.57
2023-05-06T12:33:49.906Z,21.45
2023-05-06T12:36:54.024Z,21.67
2023-05-06T12:39:58.723Z,21.60
2023-05-06T12:43:01.408Z,21.68
2023-05-06T12:46:05.224Z,21.56
2023-05-06T12:49:07.104Z,21.59
2023-05-06T12:52:11.808Z,21.79
2023-05-06T12:55:13.674Z,21.82
2023-05-06T12:58:16.142Z,21.77
2023-05-06T13:01:22.097Z,21.70
2023-05-06T13:04:24.254Z,21.54
2023-05-06T13:07:28.247Z,21.53
2023-05-06T13:10:30.056Z,21.45
2023-05-06T13:13:31.866Z,21.39
2023-05-06T13:16:35.385Z,21.36
2023-05-06T13:19:37.412Z,21.06
2023-05-06T13:22:53.670Z,20.63
2023-05-06T13:26:04.189Z,20.23
2023-05-06T13:29:07.068Z,20.31
2023-05-06T13:32:09.821Z,20.23
2023-05-06T13:35:11.836Z,20.09
2023-05-06T13:38:16.096Z,19.95
2023-05-06T13:41:17.983Z,19.75
2023-05-06T13:44:21.724Z,19.53
2023-05-06T13:47:24.384Z,19.14
2023-05-06T13:50:26.307Z,19.33
2023-05-06T13:53:30.183Z,19.19
2023-05-06T13:56:32.389Z,18.75
2023-05-06T13:59:34.662Z,18.94
2023-05-06T14:02:37.480Z,18.72
2023-05-06T14:05:39.807Z,18.57
2023-05-06T14:08:43.112Z,18.14
2023-05-06T14:11:45.660Z,18.29
2023-05-06T14:14:47.435Z,18.12
2023-05-06T14:17:49.915Z,17.86
2023-05-06T14:20:51.677Z,17.56
2023-05-06T14:23:55.005Z,17.21
2023-05-06T14:26:56.754Z,16.91
2023-05-06T14:29:59.595Z,16.75
2023-05-06T14:33:01.513Z,16.45
2023-05-06T14:36:03.574Z,16.35
2023-05-06T14:39:07.636Z,16.25
2023-05-06T14:42:09.728Z,16.22
2023-05-06T14:45:12.925Z,16.18
2023-05-06T14:48:15.613Z,16.30
2023-05-06T14:51:17.474Z,16.48
2023-05-06T14:54:21.064Z,16.44
2023-05-06T14:57:23.993Z,16.31
2023-05-06T15:00:26.760Z,16.42
2023-05-06T15:03:28.588Z,16.41
2023-05-06T15:06:30.553Z,16.35
2023-05-06T15:09:33.949Z,16.60
2023-05-06T15:12:37.434Z,16.58
2023-05-06T15:15:39.574Z,16.71
2023-05-06T15:18:42.096Z,16.43
2023-05-06T15:21:44.130Z,16.71
2023-05-06T15:24:47.899Z,16.76
2023-05-06T15:27:49.783Z,16.97
2023-05-06T15:30:52.454Z,17.24
2023-05-06T15:33:54.325Z,17.54
2023-05-06T15:36:56.452Z,17.63
2023-05-06T15:39:59.813Z,17.57
2023-05-06T15:43:01.725Z,17.61
2023-05-06T15:46:04.463Z,17.69
2023-05-06T15:52:11.257Z,18.02
2023-05-06T15:55:15.321Z,18.16
2023-05-06T15:58:18.395Z,18.22
2023-05-06T16:01:23.803Z,18.25
2023-05-06T16:04:31.948Z,18.10
2023-05-06T16:07:34.409Z,18.10
2023-05-06T16:10:37.533Z,18.08
2023-05-06T16:13:39.587Z,18.46
2023-05-06T16:16:42.361Z,18.51
2023-05-06T16:19:44.211Z,18.51
2023-05-06T16:22:49.863Z,18.25
2023-05-06T16:25:54.839Z,18.01
2023-05-06T16:28:56.643Z,18.06
2023-05-06T16:31:59.356Z,17.67
2023-05-06T16:35:01.244Z,17.67
2023-05-06T16:38:03.135Z,17.55
2023-05-06T16:41:07.139Z,17.36
2023-05-06T16:44:08.916Z,17.20
2023-05-06T16:47:11.312Z,17.02
2023-05-06T16:50:14.123Z,17.07
2023-05-06T16:53:17.478Z,17.00
2023-05-06T16:56:20.871Z,16.94
2023-05-06T16:59:23.657Z,17.14
2023-05-06T17:02:25.978Z,16.82
2023-05-06T17:05:28.289Z,16.73
2023-05-06T17:11:36.589Z,16.50
2023-05-06T17:14:38.528Z,16.40
2023-05-06T17:17:41.486Z,16.68
2023-05-06T17:20:54.398Z,16.84
2023-05-06T17:23:58.393Z,16.85
2023-05-06T17:27:02.349Z,16.68
2023-05-06T17:30:06.718Z,16.67
2023-05-06T17:33:08.713Z,16.71
2023-05-06T17:36:12.230Z,16.09
2023-05-06T17:39:14.510Z,16.49
2023-05-06T17:42:17.816Z,16.29
2023-05-06T17:45:20.183Z,16.37
2023-05-06T17:48:21.982Z,16.34
2023-05-06T17:51:24.256Z,16.38
2023-05-06T17:54:26.117Z,16.27
2023-05-06T17:57:30.558Z,16.18
2023-05-06T18:00:32.451Z,16.13
2023-05-06T18:03:34.411Z,16.36
2023-05-06T18:06:37.098Z,16.70
2023-05-06T18:09:38.994Z,16.58
2023-05-06T18:12:45.321Z,16.36
2023-05-06T18:15:47.278Z,16.26
2023-05-06T18:18:50.077Z,16.31
2023-05-06T18:21:51.975Z,16.06
2023-05-06T18:24:55.334Z,15.87
2023-05-06T18:27:59.417Z,16.15
2023-05-06T18:31:01.404Z,15.96
2023-05-06T18:34:04.079Z,15.71
2023-05-06T18:37:06.240Z,15.41
2023-05-06T18:40:09.199Z,15.93
2023-05-06T18:43:13.295Z,15.54
2023-05-06T18:46:15.256Z,15.63
2023-05-06T18:49:18.063Z,15.64
2023-05-06T18:52:19.980Z,15.66
2023-05-06T18:55:22.040Z,15.66
2023-05-06T18:58:25.288Z,15.50
2023-05-06T19:01:28.260Z,15.31
2023-05-06T19:04:30.302Z,15.24
2023-05-06T19:07:32.374Z,15.52
2023-05-06T19:10:34.496Z,15.61
2023-05-06T19:13:37.745Z,15.33
2023-05-06T19:16:40.185Z,15.35
2023-05-06T19:19:42.182Z,15.43
2023-05-06T19:22:44.944Z,15.48
2023-05-06T19:25:46.907Z,15.70
2023-05-06T19:28:50.167Z,15.78
2023-05-06T19:31:52.122Z,15.69
2023-05-06T19:34:54.134Z,15.24
2023-05-06T19:37:57.031Z,15.41
2023-05-06T19:40:58.967Z,15.37
2023-05-06T19:44:02.290Z,15.39
2023-05-06T19:47:05.012Z,15.46
2023-05-06T19:50:08.411Z,15.53
2023-05-06T19:53:11.139Z,15.41
2023-05-06T19:56:14.399Z,15.46
2023-05-06T19:59:18.367Z,15.36
2023-05-06T20:02:20.631Z,15.16
2023-05-06T20:05:23.293Z,15.85
2023-05-06T20:08:25.184Z,16.41
2023-05-06T20:11:28.075Z,16.58
2023-05-06T20:14:31.426Z,16.59
2023-05-06T20:17:34.478Z,16.80
2023-05-06T20:20:39.925Z,17.00
2023-05-06T20:23:41.785Z,16.84
2023-05-06T20:26:43.905Z,16.68
2023-05-06T20:29:47.604Z,16.51
2023-05-06T20:32:51.894Z,16.42
2023-05-06T20:35:55.544Z,16.33
2023-05-06T20:38:57.857Z,16.36
2023-05-06T20:42:00.044Z,16.32
2023-05-06T20:45:04.352Z,15.86
2023-05-06T20:48:06.390Z,16.31
2023-05-06T20:51:08.655Z,16.32
2023-05-06T20:54:10.630Z,16.29
2023-05-06T20:57:13.880Z,16.16
2023-05-06T21:00:17.758Z,16.01
2023-05-06T21:03:19.738Z,15.95
2023-05-06T21:06:22.712Z,15.80
2023-05-06T21:09:25.013Z,15.74
2023-05-06T21:12:26.846Z,15.62
2023-05-06T21:15:30.457Z,15.86
2023-05-06T21:18:32.380Z,16.02
2023-05-06T21:21:34.829Z,15.82
2023-05-06T21:24:36.714Z,15.83
2023-05-06T21:27:38.576Z,15.71
2023-05-06T21:30:41.937Z,15.54
2023-05-06T21:33:43.769Z,15.65
2023-05-06T21:36:46.564Z,15.51
2023-05-06T21:39:48.408Z,15.37
2023-05-06T21:42:50.258Z,15.40
2023-05-06T21:45:53.957Z,15.38
2023-05-06T21:48:56.014Z,15.58
2023-05-06T21:51:58.508Z,15.58
2023-05-06T21:55:00.589Z,15.57
2023-05-06T21:58:02.384Z,15.35
2023-05-06T22:01:06.175Z,15.49
2023-05-06T22:04:13.078Z,15.32
2023-05-06T22:07:16.630Z,15.19
2023-05-06T22:10:18.507Z,15.12
2023-05-06T22:13:20.929Z,15.30
2023-05-06T22:16:25.896Z,15.54
2023-05-06T22:19:28.122Z,15.65
2023-05-06T22:22:30.468Z,15.76
2023-05-06T22:25:32.233Z,15.65
2023-05-06T22:28:34.517Z,15.66
2023-05-06T22:31:37.751Z,15.66
2023-05-06T22:34:40.430Z,15.59
2023-05-06T22:37:42.298Z,15.61
2023-05-06T22:40:44.195Z,15.54
2023-05-06T22:43:46.490Z,15.57
2023-05-06T22:46:49.716Z,15.52
2023-05-06T22:49:52.398Z,15.50
2023-05-06T22:52:54.260Z,15.55
2023-05-06T22:55:56.086Z,15.67
2023-05-06T22:58:58.364Z,15.59
2023-05-06T23:02:02.015Z,15.78
2023-05-06T23:05:05.080Z,15.79
2023-05-06T23:08:06.967Z,15.83
2023-05-06T23:11:08.792Z,15.86
2023-05-06T23:14:10.689Z,15.79
2023-05-06T23:17:13.934Z,15.84
2023-05-06T23:20:17.259Z,15.83
2023-05-06T23:23:19.088Z,15.78
2023-05-06T23:26:21.368Z,15.67
2023-05-06T23:29:23.141Z,15.60
2023-05-06T23:32:26.565Z,15.62
2023-05-06T23:35:28.505Z,15.52
2023-05-06T23:38:30.365Z,15.47
2023-05-06T23:41:32.307Z,15.42
2023-05-06T23:44:34.083Z,15.36
2023-05-06T23:47:37.296Z,15.32
2023-05-06T23:50:39.172Z,15.35
2023-05-06T23:53:41.502Z,15.34
2023-05-06T23:56:43.339Z,15.35
2023-05-06T23:59:45.260Z,15.26
